TFFR/PTP METAR and TAF weather

Enter ICAO airport designator
Station Type Date Time Source
TFFR METAR 2020/01/18 13:00 UTC NOAA

TFFR 181300Z AUTO 05013KT 020V080 9999 FEW014 BKN046 BKN100 24/21 Q1019 TEMPO 2000 SHRA FEW015CB BKN018TCU


Station Type Date Time Source
TFFR Decoded METAR 2020/01/18 13:00 UTC NOAA

Le Raizet, Guadeloupe, Guadeloupe (TFFR) 16-16N 061-31W 11M
Jan 18, 2020 - 08:00 AM EST / 2020.01.18 1300 UTC
Wind: from the NE (050 degrees) at 15 MPH (13 KT) (direction variable):0
Visibility: greater than 7 mile(s):0
Sky conditions: mostly cloudy
Weather: Cumulonimbus clouds, towering cumulus clouds observed
Temperature: 75 F (24 C)
Dew Point: 69 F (21 C)
Relative Humidity: 83%
Pressure (altimeter): 30.09 in. Hg (1019 hPa)
ob: TFFR 181300Z AUTO 05013KT 020V080 9999 FEW014 BKN046 BKN100 24/21 Q1019 TEMPO 2000 SHRA FEW015CB BKN018TCU
cycle: 13

Station Type Date Time Source
TFFR TAF 2020/01/18 12:21 UTC NOAA

TAF TFFR 181100Z 1812/1912 07010KT 9999 SCT030
TEMPO 1812/1816 2000 SHRA FEW015CB BKN018TCU

Example: see airport list